Time;durP1;ratioP1;P1;durP2;ratioP2;P2;SDS_P1;SDS_P2;PMS_P1;PMS_P2;Temp;Humidity;BMP_temperature;BMP_pressure;BME280_temperature;BME280_humidity;BME280_pressure;Samples;Min_cycle;Max_cycle;Signal;HPM_P1;HPM_P2
2022/08/20 00:02:01;;;;;;;11.50;5.72;;;20.30;99.90;;;;;;5036767;28;20093;-84
2022/08/20 00:04:27;;;;;;;12.77;5.53;;;20.50;99.90;;;;;;5036634;28;20052;-84
2022/08/20 00:06:52;;;;;;;12.90;5.95;;;20.20;99.90;;;;;;5036530;28;20077;-82
2022/08/20 00:09:18;;;;;;;12.18;5.60;;;20.20;99.90;;;;;;5036043;28;20033;-84
2022/08/20 00:11:44;;;;;;;14.23;6.20;;;20.60;99.90;;;;;;5026690;28;20127;-84
2022/08/20 00:14:09;;;;;;;12.57;5.47;;;20.40;99.90;;;;;;5035728;28;20128;-84
2022/08/20 00:16:37;;;;;;;11.65;5.10;;;20.20;99.90;;;;;;5035936;28;20030;-85
2022/08/20 00:19:06;;;;;;;11.43;5.70;;;20.20;99.90;;;;;;5036516;28;20501;-85
2022/08/20 00:21:32;;;;;;;9.68;4.90;;;20.20;99.90;;;;;;5037042;28;20037;-85
2022/08/20 00:23:58;;;;;;;12.48;5.20;;;20.20;99.90;;;;;;5037556;28;20051;-85
2022/08/20 00:26:24;;;;;;;9.80;5.25;;;20.20;99.90;;;;;;5037798;28;20042;-85
2022/08/20 00:28:50;;;;;;;10.70;5.03;;;20.10;99.90;;;;;;5036903;28;20121;-84
2022/08/20 00:31:18;;;;;;;10.40;5.43;;;20.20;99.90;;;;;;5035997;28;20041;-85
2022/08/20 00:33:46;;;;;;;14.75;5.75;;;20.20;99.90;;;;;;5036827;28;20048;-85
2022/08/20 00:36:12;;;;;;;10.48;5.00;;;20.10;99.90;;;;;;5034177;28;20387;-85
2022/08/20 00:38:40;;;;;;;14.23;5.30;;;20.50;99.90;;;;;;5036207;28;20094;-85
2022/08/20 00:41:10;;;;;;;9.88;5.38;;;20.10;99.90;;;;;;5035859;28;20049;-85
2022/08/20 00:43:39;;;;;;;11.60;5.13;;;20.20;99.90;;;;;;5034963;28;20052;-84
2022/08/20 00:46:21;;;;;;;16.05;4.97;;;20.10;99.90;;;;;;5036591;28;20500;-84
2022/08/20 00:48:51;;;;;;;12.93;5.50;;;20.10;99.90;;;;;;5035137;28;20064;-84
2022/08/20 00:51:24;;;;;;;12.82;5.60;;;20.10;99.90;;;;;;5016016;28;20041;-84
2022/08/20 00:53:51;;;;;;;10.52;5.00;;;20.10;99.90;;;;;;5014206;28;20046;-85
2022/08/20 00:56:17;;;;;;;13.70;5.50;;;20.10;99.90;;;;;;5017038;28;20387;-86
2022/08/20 00:58:44;;;;;;;14.63;5.47;;;20.00;99.90;;;;;;5016892;28;20049;-85
2022/08/20 01:01:10;;;;;;;11.63;5.60;;;20.00;99.90;;;;;;5017332;28;20490;-84
2022/08/20 01:03:36;;;;;;;12.00;5.45;;;20.00;99.90;;;;;;5033863;28;20053;-85
2022/08/20 01:06:02;;;;;;;9.23;5.10;;;20.00;99.90;;;;;;5035341;28;20041;-85
2022/08/20 01:08:28;;;;;;;8.45;4.95;;;20.00;99.90;;;;;;5035695;28;20047;-84
2022/08/20 01:11:16;;;;;;;14.68;5.28;;;20.00;99.90;;;;;;5036557;28;20541;-84
2022/08/20 01:13:43;;;;;;;13.13;5.57;;;20.00;99.90;;;;;;5036114;28;20033;-84
2022/08/20 01:16:17;;;;;;;11.98;4.93;;;19.90;99.90;;;;;;5035658;28;20049;-84
2022/08/20 01:18:47;;;;;;;16.85;5.72;;;19.90;99.90;;;;;;5035695;28;20046;-84
2022/08/20 01:21:13;;;;;;;13.40;5.22;;;19.90;99.90;;;;;;5035301;28;20057;-84
2022/08/20 01:23:55;;;;;;;15.45;5.25;;;20.30;99.90;;;;;;5034642;28;20077;-85
2022/08/20 01:26:33;;;;;;;12.85;5.70;;;19.80;99.90;;;;;;5035628;28;20042;-84
2022/08/20 01:29:10;;;;;;;16.05;5.50;;;19.80;99.90;;;;;;5033826;28;20127;-85
2022/08/20 01:31:39;;;;;;;12.43;5.40;;;19.80;99.90;;;;;;5035162;28;20042;-85
2022/08/20 01:34:08;;;;;;;13.15;5.20;;;19.80;99.90;;;;;;5034503;28;20083;-85
2022/08/20 01:36:38;;;;;;;11.27;4.80;;;19.80;99.90;;;;;;5036430;28;20068;-84
2022/08/20 01:39:08;;;;;;;12.23;4.97;;;19.70;99.90;;;;;;5036273;28;20494;-85
2022/08/20 01:41:46;;;;;;;10.95;4.95;;;19.60;99.90;;;;;;5018223;28;20084;-85
2022/08/20 01:44:12;;;;;;;13.95;5.20;;;19.60;99.90;;;;;;5034543;28;20083;-84
2022/08/20 01:46:42;;;;;;;14.40;5.50;;;19.60;99.90;;;;;;5035080;28;20077;-85
2022/08/20 01:49:25;;;;;;;11.55;4.90;;;19.50;99.90;;;;;;5036618;28;20049;-85
2022/08/20 01:51:57;;;;;;;12.18;5.50;;;19.40;99.90;;;;;;5036323;28;20049;-85
2022/08/20 01:54:24;;;;;;;11.43;5.30;;;19.40;99.90;;;;;;5034047;28;20045;-84
2022/08/20 01:56:56;;;;;;;9.95;5.03;;;19.40;99.90;;;;;;5035280;28;20095;-84
2022/08/20 01:59:23;;;;;;;13.50;5.57;;;19.40;99.90;;;;;;5035260;28;20064;-85
2022/08/20 02:01:49;;;;;;;13.95;5.30;;;19.40;99.90;;;;;;5035192;28;20474;-84
2022/08/20 02:04:17;;;;;;;11.43;5.82;;;19.30;99.90;;;;;;5016304;28;20053;-85
2022/08/20 02:06:50;;;;;;;11.18;5.32;;;19.30;99.90;;;;;;5034591;28;20120;-85
2022/08/20 02:09:16;;;;;;;14.90;5.88;;;19.30;99.90;;;;;;5034893;28;20049;-85
2022/08/20 02:11:42;;;;;;;10.88;5.63;;;19.40;99.90;;;;;;5034571;28;20048;-84
2022/08/20 02:14:09;;;;;;;11.88;5.63;;;19.20;99.90;;;;;;5034992;28;20485;-85
2022/08/20 02:16:38;;;;;;;9.70;5.75;;;19.20;99.90;;;;;;5032391;28;20083;-85
2022/08/20 02:19:13;;;;;;;11.90;5.82;;;19.10;99.90;;;;;;5024283;28;20401;-85
2022/08/20 02:21:46;;;;;;;13.32;5.88;;;19.10;99.90;;;;;;5034599;28;20056;-84
2022/08/20 02:24:12;;;;;;;12.15;5.60;;;19.10;99.90;;;;;;5034323;28;20046;-85
2022/08/20 02:26:38;;;;;;;12.38;6.00;;;19.00;99.90;;;;;;5034915;28;20046;-86
2022/08/20 02:29:07;;;;;;;12.82;5.60;;;19.00;99.90;;;;;;5036308;28;20053;-85
2022/08/20 02:31:34;;;;;;;12.75;5.22;;;19.00;99.90;;;;;;5035687;28;20048;-85
2022/08/20 02:34:01;;;;;;;12.32;5.30;;;19.00;99.90;;;;;;5034059;28;20041;-84
2022/08/20 02:36:26;;;;;;;11.48;5.20;;;18.90;99.90;;;;;;5034609;28;20052;-84
2022/08/20 02:38:52;;;;;;;13.45;5.22;;;18.90;99.90;;;;;;5035300;28;20037;-85
2022/08/20 02:41:20;;;;;;;10.25;5.15;;;19.00;99.90;;;;;;5033157;28;20405;-84
2022/08/20 02:43:46;;;;;;;9.82;4.72;;;18.90;99.90;;;;;;5034600;28;20045;-85
2022/08/20 02:46:14;;;;;;;11.90;4.80;;;18.80;99.90;;;;;;5039644;28;20047;-84
2022/08/20 02:48:40;;;;;;;10.88;4.88;;;19.30;99.90;;;;;;5039704;28;20509;-85
2022/08/20 02:51:07;;;;;;;13.30;4.60;;;18.80;99.90;;;;;;5032674;28;20049;-85
2022/08/20 02:53:36;;;;;;;12.10;4.82;;;18.70;99.90;;;;;;5032517;28;20437;-85
2022/08/20 02:56:05;;;;;;;9.95;4.50;;;18.70;99.90;;;;;;5032722;28;20069;-85
2022/08/20 02:58:31;;;;;;;16.92;4.82;;;18.70;99.90;;;;;;5033821;28;20056;-85
2022/08/20 03:00:57;;;;;;;12.00;4.45;;;18.80;99.90;;;;;;5032371;28;20041;-85
2022/08/20 03:03:23;;;;;;;14.38;4.45;;;18.60;99.90;;;;;;5030311;28;20076;-85
2022/08/20 03:05:55;;;;;;;12.73;4.50;;;18.60;99.90;;;;;;5034169;28;20537;-85
2022/08/20 03:08:21;;;;;;;9.48;4.07;;;18.60;99.90;;;;;;5033417;28;20041;-86
2022/08/20 03:10:47;;;;;;;10.73;4.25;;;18.60;99.90;;;;;;5048579;28;20045;-85
2022/08/20 03:13:14;;;;;;;12.43;3.88;;;18.60;99.90;;;;;;5052530;28;20048;-85
2022/08/20 03:15:45;;;;;;;11.63;4.10;;;18.50;99.90;;;;;;5034904;28;20083;-85
2022/08/20 03:18:11;;;;;;;12.52;3.80;;;18.50;99.90;;;;;;5037021;28;20397;-85
2022/08/20 03:20:37;;;;;;;19.80;4.20;;;18.50;99.90;;;;;;5037307;28;20041;-85
2022/08/20 03:23:04;;;;;;;9.85;3.60;;;18.40;99.90;;;;;;5037505;28;20410;-86
2022/08/20 03:25:29;;;;;;;12.30;3.55;;;18.40;99.90;;;;;;5036297;28;20128;-85
2022/08/20 03:27:56;;;;;;;11.18;3.63;;;18.70;99.90;;;;;;5036807;28;20440;-85
2022/08/20 03:30:23;;;;;;;9.10;3.45;;;18.40;99.90;;;;;;5036458;28;20421;-85
2022/08/20 03:32:49;;;;;;;12.40;3.35;;;18.40;99.90;;;;;;5036295;28;20448;-85
2022/08/20 03:35:16;;;;;;;11.43;3.30;;;18.50;99.90;;;;;;5034764;28;20038;-85
2022/08/20 03:37:42;;;;;;;9.63;3.50;;;18.40;99.90;;;;;;5034770;28;20128;-85
2022/08/20 03:40:11;;;;;;;9.13;3.15;;;18.40;99.90;;;;;;5036325;28;20124;-85
2022/08/20 03:42:38;;;;;;;12.45;3.28;;;18.40;99.90;;;;;;5037289;28;20052;-85
2022/08/20 03:45:05;;;;;;;12.65;3.45;;;18.30;99.90;;;;;;5035999;28;20046;-85
2022/08/20 03:47:31;;;;;;;9.23;3.38;;;18.30;99.90;;;;;;5038578;28;20390;-85
2022/08/20 03:50:00;;;;;;;9.23;3.10;;;18.30;99.90;;;;;;5043196;28;20091;-86
2022/08/20 03:52:28;;;;;;;8.52;2.80;;;18.30;99.90;;;;;;5018514;28;20042;-86
2022/08/20 03:54:54;;;;;;;11.23;3.10;;;18.30;99.90;;;;;;5017566;28;20064;-86
2022/08/20 03:57:19;;;;;;;13.70;3.10;;;18.30;99.90;;;;;;5017699;28;20038;-85
2022/08/20 03:59:45;;;;;;;8.82;2.80;;;18.40;99.90;;;;;;5003763;28;20067;-85
2022/08/20 04:02:11;;;;;;;10.40;3.10;;;18.30;99.90;;;;;;5036152;28;20134;-85
2022/08/20 04:04:39;;;;;;;13.90;3.13;;;18.30;99.90;;;;;;5035836;28;20494;-85
2022/08/20 04:07:13;;;;;;;14.10;2.95;;;18.20;99.90;;;;;;5036324;28;20041;-86
2022/08/20 04:09:39;;;;;;;9.20;2.83;;;18.20;99.90;;;;;;5034594;28;20045;-85
2022/08/20 04:12:06;;;;;;;17.73;3.33;;;18.30;99.90;;;;;;5031672;28;20052;-85
2022/08/20 04:14:35;;;;;;;11.68;2.90;;;18.20;99.90;;;;;;5032166;28;20069;-86
2022/08/20 04:17:07;;;;;;;10.32;2.80;;;18.20;99.90;;;;;;5017282;28;20077;-84
2022/08/20 04:19:34;;;;;;;10.63;2.78;;;18.20;99.90;;;;;;5016006;28;20079;-85
2022/08/20 04:21:59;;;;;;;11.45;3.20;;;18.20;99.90;;;;;;5014277;28;20045;-85
2022/08/20 04:24:26;;;;;;;10.63;2.80;;;18.20;99.90;;;;;;5038630;28;20048;-85
2022/08/20 04:26:53;;;;;;;12.02;2.88;;;18.20;99.90;;;;;;5036202;28;20045;-84
2022/08/20 04:29:20;;;;;;;10.35;2.60;;;18.20;99.90;;;;;;5037855;28;20375;-85
2022/08/20 04:31:46;;;;;;;13.95;2.85;;;18.20;99.90;;;;;;5048001;28;20045;-85
2022/08/20 04:34:12;;;;;;;12.52;2.63;;;18.20;99.90;;;;;;5037320;28;20095;-85
2022/08/20 04:36:39;;;;;;;10.43;2.70;;;18.20;99.90;;;;;;5036108;28;20055;-85
2022/08/20 04:39:05;;;;;;;10.18;2.75;;;18.20;99.90;;;;;;5034378;28;20491;-85
2022/08/20 04:41:30;;;;;;;11.35;2.50;;;18.20;99.90;;;;;;5035516;28;20065;-85
2022/08/20 04:43:59;;;;;;;7.75;2.63;;;18.20;99.90;;;;;;5047791;28;20080;-85
2022/08/20 04:46:27;;;;;;;7.88;2.67;;;18.20;99.90;;;;;;5054606;28;20123;-86
2022/08/20 04:48:53;;;;;;;11.57;2.92;;;18.30;99.90;;;;;;5056062;28;20053;-85
2022/08/20 04:51:20;;;;;;;10.05;2.50;;;18.20;99.90;;;;;;5055699;28;20054;-86
2022/08/20 04:53:45;;;;;;;13.55;2.97;;;18.20;99.90;;;;;;5040943;28;20081;-85
2022/08/20 04:56:11;;;;;;;11.65;2.90;;;18.30;99.90;;;;;;5035431;28;20077;-86
2022/08/20 04:58:39;;;;;;;10.35;2.90;;;18.30;99.90;;;;;;5018151;28;20046;-85
2022/08/20 05:01:07;;;;;;;9.40;3.08;;;18.30;99.90;;;;;;5047224;28;20037;-85
2022/08/20 05:03:36;;;;;;;10.50;2.25;;;18.20;99.90;;;;;;5033246;28;20477;-85
2022/08/20 05:06:03;;;;;;;8.70;2.33;;;18.60;99.90;;;;;;5035120;28;20088;-85
2022/08/20 05:08:29;;;;;;;11.05;2.45;;;18.20;99.90;;;;;;5029177;28;20444;-85
2022/08/20 05:10:56;;;;;;;11.40;2.67;;;18.20;99.90;;;;;;5049549;28;20045;-85
2022/08/20 05:13:23;;;;;;;11.10;2.92;;;18.10;99.90;;;;;;5035095;28;20084;-85
2022/08/20 05:15:49;;;;;;;10.90;2.80;;;18.10;99.90;;;;;;5035817;28;20038;-85
2022/08/20 05:18:21;;;;;;;8.88;3.17;;;18.10;99.90;;;;;;5036035;28;20124;-85
2022/08/20 05:20:47;;;;;;;10.05;2.90;;;18.10;99.90;;;;;;5042435;28;20049;-85
2022/08/20 05:23:15;;;;;;;8.43;2.45;;;18.10;99.90;;;;;;5036466;28;20049;-85
2022/08/20 05:25:42;;;;;;;11.68;2.58;;;18.00;99.90;;;;;;5034893;28;20045;-85
2022/08/20 05:28:11;;;;;;;12.43;2.97;;;18.10;99.90;;;;;;5037003;28;20069;-85
2022/08/20 05:30:39;;;;;;;8.48;2.33;;;18.00;99.90;;;;;;5049549;28;20044;-85
2022/08/20 05:33:06;;;;;;;6.40;2.28;;;18.00;99.90;;;;;;5055336;28;20036;-86
2022/08/20 05:35:37;;;;;;;12.00;2.60;;;18.40;99.90;;;;;;5051975;28;20092;-86
2022/08/20 05:38:04;;;;;;;10.85;2.50;;;18.00;99.90;;;;;;5032648;28;20053;-86
2022/08/20 05:40:29;;;;;;;11.40;2.70;;;18.40;99.90;;;;;;5033868;28;20049;-85
2022/08/20 05:42:55;;;;;;;9.20;2.90;;;17.90;99.90;;;;;;5034889;28;20051;-84
2022/08/20 05:45:21;;;;;;;11.80;2.50;;;18.00;99.90;;;;;;5035660;28;20041;-85
2022/08/20 05:47:47;;;;;;;8.88;2.58;;;18.00;99.90;;;;;;5034974;28;20107;-85
2022/08/20 05:50:14;;;;;;;10.27;2.85;;;18.00;99.90;;;;;;5034809;28;20080;-85
2022/08/20 05:52:40;;;;;;;10.20;3.05;;;18.00;99.90;;;;;;5034479;28;20037;-81
2022/08/20 05:55:08;;;;;;;8.48;3.03;;;18.00;99.90;;;;;;5033004;28;20051;-85
2022/08/20 05:57:35;;;;;;;9.40;3.40;;;18.00;99.90;;;;;;5014702;28;20045;-86
2022/08/20 06:00:04;;;;;;;12.13;3.90;;;18.00;99.90;;;;;;5023547;28;20413;-84
2022/08/20 06:05:14;;;;;;;7.82;2.95;;;18.10;99.90;;;;;;5037880;28;20041;-84
2022/08/20 06:07:40;;;;;;;10.15;3.20;;;18.20;99.90;;;;;;5033891;28;20044;-84
2022/08/20 06:10:08;;;;;;;10.23;3.13;;;18.20;99.90;;;;;;5032776;28;20136;-85
2022/08/20 06:12:34;;;;;;;10.70;3.10;;;18.10;99.90;;;;;;5035469;28;20051;-85
2022/08/20 06:15:00;;;;;;;13.48;3.35;;;18.10;99.90;;;;;;5034840;28;20549;-85
2022/08/20 06:17:28;;;;;;;10.18;2.92;;;18.10;99.90;;;;;;5033313;28;20191;-85
2022/08/20 06:19:53;;;;;;;11.45;3.13;;;18.20;99.90;;;;;;5036866;28;20490;-84
2022/08/20 06:22:19;;;;;;;10.95;3.03;;;18.30;99.90;;;;;;5033451;28;20091;-84
2022/08/20 06:24:45;;;;;;;9.10;2.90;;;18.30;99.90;;;;;;5033516;28;20033;-86
2022/08/20 06:27:14;;;;;;;11.00;2.90;;;18.80;99.90;;;;;;5032670;28;20394;-85
2022/08/20 06:29:40;;;;;;;13.55;3.10;;;18.40;99.90;;;;;;5034006;28;20100;-85
2022/08/20 06:32:06;;;;;;;10.98;3.00;;;18.40;99.90;;;;;;5032969;28;20049;-85
2022/08/20 06:34:32;;;;;;;10.00;3.00;;;18.50;99.90;;;;;;5033915;28;20397;-85
2022/08/20 06:36:58;;;;;;;10.68;2.78;;;18.50;99.90;;;;;;5033852;28;20041;-85
2022/08/20 06:39:26;;;;;;;9.18;2.60;;;18.60;99.90;;;;;;5034197;28;20048;-85
2022/08/20 06:41:51;;;;;;;7.53;2.30;;;18.60;99.90;;;;;;5035455;28;20091;-88
2022/08/20 06:44:18;;;;;;;7.57;2.10;;;18.70;99.90;;;;;;5037774;28;20045;-88
2022/08/20 06:46:44;;;;;;;6.32;2.00;;;18.70;99.90;;;;;;5038632;28;20124;-88
2022/08/20 06:49:11;;;;;;;11.05;2.53;;;18.80;99.90;;;;;;5033953;28;20536;-89
2022/08/20 06:51:37;;;;;;;8.07;2.05;;;18.90;99.90;;;;;;5034012;28;20041;-89
2022/08/20 06:54:04;;;;;;;8.30;2.17;;;19.00;99.90;;;;;;5035930;28;20065;-88
2022/08/20 06:56:30;;;;;;;14.02;2.50;;;19.00;99.90;;;;;;5054384;28;20041;-88
2022/08/20 06:58:56;;;;;;;9.98;2.05;;;19.10;99.90;;;;;;5035510;28;20045;-89
2022/08/20 07:01:22;;;;;;;6.75;1.90;;;19.20;99.90;;;;;;5034930;28;20087;-89
2022/08/20 07:03:49;;;;;;;8.30;2.13;;;19.30;99.90;;;;;;5033301;28;20126;-88
2022/08/20 07:06:15;;;;;;;5.75;1.60;;;19.30;99.90;;;;;;5030995;28;20045;-87
2022/08/20 07:08:42;;;;;;;10.27;2.15;;;19.30;99.90;;;;;;5033675;28;20049;-88
2022/08/20 07:11:09;;;;;;;7.18;1.95;;;19.50;99.90;;;;;;5033968;28;20462;-88
2022/08/20 07:13:36;;;;;;;11.93;1.80;;;19.60;99.90;;;;;;5044144;28;20366;-88
2022/08/20 07:16:03;;;;;;;5.78;1.67;;;19.70;99.90;;;;;;5037874;28;20054;-88
2022/08/20 07:18:30;;;;;;;9.27;2.00;;;19.80;99.90;;;;;;5036109;28;20482;-86
2022/08/20 07:20:56;;;;;;;8.98;2.10;;;19.90;99.90;;;;;;5034810;28;20048;-89
2022/08/20 07:23:23;;;;;;;6.82;1.95;;;19.90;99.90;;;;;;5033657;28;20052;-88
2022/08/20 07:25:49;;;;;;;8.32;2.03;;;20.00;99.90;;;;;;5034197;28;20077;-89
2022/08/20 07:28:17;;;;;;;7.72;1.63;;;20.10;99.90;;;;;;5034696;28;20048;-90
2022/08/20 07:33:30;;;;;;;10.35;2.13;;;20.30;99.90;;;;;;5017693;28;20062;-89
2022/08/20 07:35:58;;;;;;;5.43;1.80;;;20.40;99.90;;;;;;5035817;28;20041;-90
2022/08/20 07:38:25;;;;;;;5.95;1.90;;;20.40;99.90;;;;;;5033096;28;20050;-89
2022/08/20 07:40:59;;;;;;;6.63;1.70;;;20.40;99.90;;;;;;5036495;28;20109;-88
2022/08/20 07:43:26;;;;;;;9.73;1.90;;;20.40;99.90;;;;;;5033763;28;20041;-88
2022/08/20 07:45:55;;;;;;;7.28;2.05;;;20.40;99.90;;;;;;5038473;28;20045;-90
2022/08/20 07:48:24;;;;;;;7.35;1.70;;;20.50;99.90;;;;;;5033434;28;20041;-83
2022/08/20 07:50:51;;;;;;;5.00;1.50;;;20.40;99.90;;;;;;5035868;28;20397;-86
2022/08/20 07:53:17;;;;;;;7.90;1.80;;;20.40;99.90;;;;;;5038896;28;20131;-84
2022/08/20 07:55:43;;;;;;;10.88;1.92;;;20.40;99.90;;;;;;5033413;28;20463;-86
2022/08/20 07:58:12;;;;;;;5.65;1.55;;;20.50;99.90;;;;;;5033229;28;20068;-86
2022/08/20 08:00:38;;;;;;;7.53;1.65;;;20.50;99.90;;;;;;5032973;28;20461;-83
2022/08/20 08:03:06;;;;;;;6.90;1.80;;;20.60;99.90;;;;;;5015430;28;20038;-83
2022/08/20 08:05:35;;;;;;;6.85;1.73;;;20.60;99.90;;;;;;5019865;28;20505;-84
2022/08/20 08:08:01;;;;;;;6.15;1.60;;;20.70;99.90;;;;;;5034543;28;20048;-86
2022/08/20 08:10:27;;;;;;;6.85;1.80;;;20.80;99.90;;;;;;5037879;28;20033;-87
2022/08/20 08:12:56;;;;;;;7.07;1.77;;;20.90;99.90;;;;;;5041036;28;20168;-87
2022/08/20 08:15:26;;;;;;;6.47;1.90;;;21.00;99.90;;;;;;5036407;28;20081;-87
2022/08/20 08:17:55;;;;;;;6.10;1.70;;;21.10;99.90;;;;;;5027353;28;20048;-86
2022/08/20 08:20:22;;;;;;;7.20;1.70;;;21.20;99.90;;;;;;5049546;28;20037;-86
2022/08/20 08:22:48;;;;;;;5.60;1.52;;;21.20;99.90;;;;;;5035811;28;20054;-87
2022/08/20 08:25:15;;;;;;;6.05;1.70;;;21.30;99.90;;;;;;5037959;28;20048;-86
2022/08/20 08:27:42;;;;;;;7.78;1.77;;;21.40;99.90;;;;;;5037688;28;20067;-87
2022/08/20 08:30:09;;;;;;;5.75;1.70;;;21.50;99.90;;;;;;5056489;28;20049;-87
2022/08/20 08:32:36;;;;;;;7.60;1.88;;;21.50;99.90;;;;;;5040644;28;21453;-85
2022/08/20 08:35:06;;;;;;;7.30;1.90;;;21.60;99.90;;;;;;5021326;28;20135;-86
2022/08/20 08:37:32;;;;;;;9.70;2.03;;;21.80;99.90;;;;;;5049183;28;20564;-86
2022/08/20 08:39:57;;;;;;;7.65;1.90;;;21.80;99.90;;;;;;5028400;28;20133;-86
2022/08/20 08:42:27;;;;;;;7.38;1.80;;;22.00;99.90;;;;;;5028966;28;20057;-86
2022/08/20 08:44:53;;;;;;;9.63;2.10;;;22.00;99.90;;;;;;5032861;28;20532;-86
2022/08/20 08:47:33;;;;;;;5.43;1.92;;;22.10;99.90;;;;;;5027700;28;20046;-86
2022/08/20 08:50:01;;;;;;;6.68;1.67;;;22.20;99.90;;;;;;5038465;28;20085;-85
2022/08/20 08:52:34;;;;;;;8.43;1.67;;;22.40;99.90;;;;;;5031193;28;20052;-86
2022/08/20 08:55:04;;;;;;;8.13;2.00;;;22.50;99.90;;;;;;5034314;28;20489;-86
2022/08/20 08:57:30;;;;;;;10.32;2.03;;;22.70;99.90;;;;;;5036735;28;20393;-86
2022/08/20 09:00:06;;;;;;;4.88;1.70;;;22.90;99.90;;;;;;5034946;28;20050;-85
2022/08/20 09:02:34;;;;;;;7.18;1.67;;;23.10;99.90;;;;;;5031999;28;20033;-86
2022/08/20 09:05:09;;;;;;;5.45;1.58;;;23.10;99.90;;;;;;5024778;28;20389;-86
2022/08/20 09:07:36;;;;;;;9.98;1.85;;;23.10;99.90;;;;;;5016309;28;20108;-85
2022/08/20 09:10:02;;;;;;;4.78;1.67;;;22.90;99.90;;;;;;5015686;28;20046;-86
2022/08/20 09:12:28;;;;;;;6.00;1.63;;;22.90;99.90;;;;;;5016062;28;20121;-86
2022/08/20 09:14:53;;;;;;;6.63;1.70;;;23.10;99.90;;;;;;5023415;28;20501;-86
2022/08/20 09:17:21;;;;;;;6.80;1.90;;;23.50;99.90;;;;;;5036044;28;20072;-87
2022/08/20 09:19:48;;;;;;;12.02;1.88;;;23.90;99.90;;;;;;5036407;28;20053;-86
2022/08/20 09:22:17;;;;;;;5.97;1.70;;;24.30;99.90;;;;;;5036973;28;20042;-87
2022/08/20 09:24:43;;;;;;;6.97;1.95;;;24.60;99.90;;;;;;5034360;28;20137;-86
2022/08/20 09:27:10;;;;;;;5.40;1.52;;;24.80;99.90;;;;;;5034945;28;20038;-86
2022/08/20 09:29:37;;;;;;;5.97;1.63;;;24.80;99.60;;;;;;5034709;28;20041;-86
2022/08/20 09:32:13;;;;;;;6.22;1.80;;;24.70;99.90;;;;;;5026033;28;20061;-86
2022/08/20 09:34:42;;;;;;;10.27;2.20;;;24.90;99.90;;;;;;5035722;28;20763;-86
2022/08/20 09:37:08;;;;;;;7.07;1.80;;;25.30;99.30;;;;;;5035349;28;20049;-86
2022/08/20 09:39:34;;;;;;;8.60;1.90;;;25.70;98.70;;;;;;5035053;28;20375;-86
2022/08/20 09:42:32;;;;;;;5.55;1.65;;;26.10;97.70;;;;;;5034899;28;20107;-86
2022/08/20 09:44:58;;;;;;;5.38;1.67;;;26.60;96.50;;;;;;5032123;28;20128;-86
2022/08/20 09:47:25;;;;;;;7.47;1.70;;;26.80;96.50;;;;;;5033840;28;20045;-86
2022/08/20 09:49:51;;;;;;;9.07;1.80;;;27.00;95.60;;;;;;5034992;28;20037;-86
2022/08/20 09:52:35;;;;;;;7.90;1.90;;;27.00;95.50;;;;;;5034847;28;20033;-86
2022/08/20 09:55:14;;;;;;;5.88;1.83;;;27.00;96.20;;;;;;5033968;28;20497;-87
2022/08/20 09:57:39;;;;;;;6.47;1.67;;;27.10;96.30;;;;;;5033818;28;20045;-85
2022/08/20 10:00:07;;;;;;;7.22;1.88;;;27.10;95.90;;;;;;5035147;28;20045;-86
2022/08/20 10:02:33;;;;;;;6.43;2.15;;;26.90;95.30;;;;;;5037269;28;20045;-86
2022/08/20 10:04:59;;;;;;;6.75;1.80;;;26.70;95.70;;;;;;5034204;28;20516;-84
2022/08/20 10:07:24;;;;;;;5.90;1.60;;;26.90;94.30;;;;;;5035151;28;20524;-89
2022/08/20 10:09:50;;;;;;;7.22;1.80;;;27.00;94.50;;;;;;5033999;28;20124;-85
2022/08/20 10:12:16;;;;;;;8.60;2.10;;;27.00;93.80;;;;;;5037338;28;20047;-87
2022/08/20 10:14:41;;;;;;;5.15;1.60;;;27.10;92.60;;;;;;5039978;28;20068;-87
2022/08/20 10:17:07;;;;;;;5.32;1.58;;;26.90;92.70;;;;;;5036109;28;20080;-87
2022/08/20 10:19:33;;;;;;;6.88;1.80;;;27.10;92.90;;;;;;5032709;28;20124;-85
2022/08/20 10:21:59;;;;;;;4.75;1.83;;;27.30;92.90;;;;;;5019917;28;20104;-84
2022/08/20 10:24:26;;;;;;;6.15;1.70;;;27.40;92.60;;;;;;5025151;28;20128;-84
2022/08/20 10:26:57;;;;;;;7.78;1.75;;;27.40;92.80;;;;;;5032641;28;20041;-87
2022/08/20 10:29:24;;;;;;;6.40;1.70;;;27.30;92.20;;;;;;5034192;28;20464;-80
2022/08/20 10:31:50;;;;;;;6.78;1.90;;;27.00;92.50;;;;;;5033333;28;20482;-81
2022/08/20 10:34:16;;;;;;;4.70;1.70;;;27.10;92.10;;;;;;5033120;28;20066;-80
2022/08/20 10:36:42;;;;;;;8.98;2.10;;;27.60;91.50;;;;;;5031901;28;20095;-79
2022/08/20 10:39:07;;;;;;;5.85;1.70;;;27.80;91.00;;;;;;5030486;28;20474;-79
2022/08/20 10:41:33;;;;;;;5.20;1.70;;;27.50;91.10;;;;;;5032980;28;20167;-80
2022/08/20 10:43:58;;;;;;;6.00;1.50;;;27.10;90.90;;;;;;5032021;28;20087;-79
2022/08/20 10:46:24;;;;;;;5.50;1.67;;;26.90;90.50;;;;;;5033091;28;20473;-79
2022/08/20 10:48:50;;;;;;;5.38;1.55;;;26.50;91.20;;;;;;5033803;28;20045;-78
2022/08/20 10:51:16;;;;;;;5.85;1.70;;;26.50;91.30;;;;;;5032581;28;20124;-79
2022/08/20 10:53:42;;;;;;;7.82;2.03;;;26.30;91.90;;;;;;5033272;28;20177;-79
2022/08/20 10:56:07;;;;;;;8.32;1.73;;;26.10;92.30;;;;;;5032731;28;20474;-79
2022/08/20 10:58:33;;;;;;;7.85;2.10;;;26.00;92.50;;;;;;5031871;28;20393;-79
2022/08/20 11:00:59;;;;;;;7.53;2.05;;;25.70;92.70;;;;;;5032940;28;20681;-79
2022/08/20 11:03:24;;;;;;;6.20;1.88;;;25.70;92.70;;;;;;5032969;28;20037;-80
2022/08/20 11:05:50;;;;;;;6.60;2.10;;;26.00;93.10;;;;;;5033019;28;20091;-80
2022/08/20 11:08:16;;;;;;;9.38;2.30;;;26.40;93.00;;;;;;5032975;28;20043;-79
2022/08/20 11:10:41;;;;;;;6.28;1.88;;;26.70;93.00;;;;;;5031957;28;20045;-80
2022/08/20 11:13:08;;;;;;;9.73;2.20;;;26.70;92.80;;;;;;5031866;28;20041;-80
2022/08/20 11:15:39;;;;;;;5.20;2.20;;;26.60;92.80;;;;;;5032608;28;20049;-81
2022/08/20 11:18:05;;;;;;;7.78;2.22;;;26.60;92.60;;;;;;5018968;28;20088;-80
2022/08/20 11:20:31;;;;;;;7.25;2.20;;;26.60;92.90;;;;;;5013323;28;20437;-80
2022/08/20 11:22:57;;;;;;;7.25;1.85;;;27.10;92.90;;;;;;5013700;28;20046;-80
2022/08/20 11:25:24;;;;;;;7.57;1.98;;;28.00;92.60;;;;;;5013524;28;20048;-80
2022/08/20 11:27:51;;;;;;;7.28;2.17;;;28.80;90.90;;;;;;5013409;28;20042;-80
2022/08/20 11:30:24;;;;;;;6.20;1.85;;;28.90;90.60;;;;;;5013334;28;20418;-80
2022/08/20 11:32:50;;;;;;;7.15;2.00;;;28.70;90.50;;;;;;5011748;28;20069;-80
2022/08/20 11:35:17;;;;;;;8.50;2.03;;;28.50;90.50;;;;;;5013054;28;20489;-79
2022/08/20 11:37:43;;;;;;;10.77;2.20;;;28.40;90.00;;;;;;5016263;28;20088;-80
2022/08/20 11:40:11;;;;;;;8.32;2.67;;;29.00;90.40;;;;;;5015824;28;20053;-81
2022/08/20 11:42:37;;;;;;;5.85;1.90;;;30.70;88.50;;;;;;5017143;28;20082;-78
2022/08/20 11:45:04;;;;;;;8.77;2.10;;;32.40;86.00;;;;;;5016547;28;20057;-80
2022/08/20 11:47:32;;;;;;;9.23;2.05;;;34.20;83.20;;;;;;5014623;28;20084;-80
2022/08/20 11:50:05;;;;;;;5.20;1.80;;;36.00;80.20;;;;;;5026898;28;20056;-80
2022/08/20 11:52:31;;;;;;;7.60;1.80;;;37.50;72.40;;;;;;5037209;28;20046;-80
2022/08/20 11:54:58;;;;;;;5.75;1.95;;;38.40;70.60;;;;;;5036750;28;20493;-79
2022/08/20 11:57:26;;;;;;;5.53;1.70;;;39.50;67.20;;;;;;5036649;28;20049;-79
2022/08/20 11:59:54;;;;;;;5.65;1.77;;;40.20;63.80;;;;;;5036509;28;20251;-80
2022/08/20 12:02:20;;;;;;;6.10;1.80;;;39.10;62.10;;;;;;5036279;28;20079;-80
2022/08/20 12:04:46;;;;;;;7.05;1.90;;;38.40;63.30;;;;;;5036039;28;20045;-80
2022/08/20 12:07:14;;;;;;;7.40;2.03;;;38.90;62.70;;;;;;5036019;28;20046;-80
2022/08/20 12:09:41;;;;;;;7.15;1.77;;;39.70;61.70;;;;;;5036048;28;20033;-80
2022/08/20 12:12:07;;;;;;;6.03;1.83;;;38.90;60.60;;;;;;5034750;28;20049;-80
2022/08/20 12:14:32;;;;;;;6.22;1.70;;;37.10;61.10;;;;;;5034725;28;20053;-79
2022/08/20 12:17:11;;;;;;;4.85;1.80;;;35.50;62.00;;;;;;5044932;28;20048;-80
2022/08/20 12:19:39;;;;;;;5.82;1.90;;;33.80;63.90;;;;;;5042112;28;20061;-80
2022/08/20 12:22:05;;;;;;;8.25;1.90;;;33.10;64.40;;;;;;5036509;28;20049;-80
2022/08/20 12:24:31;;;;;;;5.68;1.95;;;33.40;64.90;;;;;;5036690;28;20077;-80
2022/08/20 12:27:10;;;;;;;9.18;2.08;;;33.50;63.90;;;;;;5036419;28;20073;-80
2022/08/20 12:29:37;;;;;;;7.97;1.75;;;33.00;64.60;;;;;;5036445;28;20124;-79
2022/08/20 12:32:05;;;;;;;4.25;1.70;;;32.40;65.40;;;;;;5036466;28;20064;-79
2022/08/20 12:34:32;;;;;;;4.93;1.70;;;32.10;63.80;;;;;;5036229;28;20042;-80
2022/08/20 12:37:07;;;;;;;5.30;1.83;;;31.60;63.60;;;;;;5034730;28;20054;-80
2022/08/20 12:39:33;;;;;;;5.53;1.88;;;31.00;63.90;;;;;;5023162;28;20041;-80
2022/08/20 12:42:01;;;;;;;5.50;1.77;;;30.30;64.90;;;;;;5014839;28;20052;-80
2022/08/20 12:44:28;;;;;;;6.03;1.80;;;29.90;66.30;;;;;;5015896;28;20041;-79
2022/08/20 12:47:13;;;;;;;5.93;2.00;;;29.90;65.80;;;;;;5014281;28;20572;-80
2022/08/20 12:49:41;;;;;;;5.97;2.00;;;29.90;66.30;;;;;;5014471;28;20054;-79
2022/08/20 12:52:07;;;;;;;5.50;1.90;;;29.60;66.20;;;;;;5015758;28;20072;-79